This is the latest recevied weather packets stored in our database for station/object WY7EM. If no packets are shown the sender has not sent any weather packets the latest 10 day(s).
| Time | Temp. | Humidity | Pressure | Rain* | Wind** | Luminosity | Snow |
|---|---|---|---|---|---|---|---|
| 1778200721 | 25° C | 17% | 1013.1 hPa | 0 mm | - | 94 W/m² | - |
| 1778200418 | 25° C | 17% | 1013.1 hPa | 0 mm | - | 100 W/m² | - |
| 1778200116 | 25° C | 17% | 1013.2 hPa | 0 mm | - | 98 W/m² | - |
| 1778199812 | 25° C | 17% | 1013.5 hPa | 0 mm | - | 107 W/m² | - |
| 1778199508 | 25° C | 17% | 1013.2 hPa | 0 mm | - | 115 W/m² | - |
| 1778199204 | 25° C | 17% | 1013.3 hPa | 0 mm | - | 117 W/m² | - |
| 1778198901 | 25.56° C | 17% | 1013.2 hPa | 0 mm | - | 114 W/m² | - |
| 1778198597 | 25° C | 17% | 1013.3 hPa | 0 mm | - | 111 W/m² | - |
| 1778198294 | 25° C | 17% | 1013.5 hPa | 0 mm | - | 108 W/m² | - |
| 1778197992 | 25° C | 17% | 1013.7 hPa | 0 mm | - | 106 W/m² | - |
| 1778197689 | 25° C | 17% | 1013.5 hPa | 0 mm | - | 109 W/m² | - |
| 1778197385 | 25.56° C | 17% | 1013.7 hPa | 0 mm | - | 113 W/m² | - |
| 1778197081 | 25.56° C | 17% | 1013.7 hPa | 0 mm | - | 122 W/m² | - |
| 1778196779 | 25.56° C | 16% | 1013.7 hPa | 0 mm | - | 120 W/m² | - |
| 1778196477 | 25.56° C | 17% | 1013.7 hPa | 0 mm | - | 122 W/m² | - |
| 1778196173 | 26.11° C | 16% | 1013.7 hPa | 0 mm | - | 142 W/m² | - |
| 1778195870 | 26.11° C | 17% | 1013.9 hPa | 0 mm | - | 217 W/m² | - |
| 1778195567 | 26.67° C | 17% | 1013.8 hPa | 0 mm | - | 231 W/m² | - |
| 1778195263 | 27.22° C | 16% | 1013.9 hPa | 0 mm | - | 235 W/m² | - |
| 1778194961 | 27.78° C | 16% | 1014 hPa | 0 mm | - | 356 W/m² | - |
| 1778194660 | 28.33° C | 15% | 1014 hPa | 0 mm | - | 630 W/m² | - |
| 1778194357 | 27.22° C | 16% | 1013.9 hPa | 0 mm | - | 551 W/m² | - |
| 1778194053 | 27.78° C | 15% | 1014 hPa | 0 mm | - | 632 W/m² | - |
| 1778193750 | 27.78° C | 15% | 1014.4 hPa | 0 mm | - | 601 W/m² | - |
| 1778193446 | 27.78° C | 16% | 1014 hPa | 0 mm | - | 601 W/m² | - |
* Rain latest hour (hover to see other rain measurements)
** Current wind speed in m/s (hover to see current wind gust speed)